Time,TemperatureF,DewpointF,PressureIn,WindDirection,WindDirectionDegrees,WindSpeedMPH,WindSpeedGustMPH,Humidity,HourlyPrecipIn,Conditions,Clouds,dailyrainin,SoftwareType,DateUTC
2013-07-23 00:01:00,65.5,27.4,30.05,North,0,0.0,0.0,24,0.00,,,0.00,WUHU216HW,2013-07-23 06:01:00,
2013-07-23 00:06:00,65.2,27.1,30.05,North,0,0.0,0.0,24,0.00,,,0.00,WUHU216HW,2013-07-23 06:06:00,
2013-07-23 00:11:00,64.8,27.7,30.06,North,0,0.0,0.0,25,0.00,,,0.00,WUHU216HW,2013-07-23 06:11:00,
2013-07-23 00:16:00,64.6,28.6,30.06,North,0,0.0,0.0,26,0.00,,,0.00,WUHU216HW,2013-07-23 06:16:00,
2013-07-23 00:21:00,64.3,27.3,30.06,North,0,0.0,0.0,25,0.00,,,0.00,WUHU216HW,2013-07-23 06:21:00,
2013-07-23 00:26:00,63.9,27.0,30.06,North,0,0.0,0.0,25,0.00,,,0.00,WUHU216HW,2013-07-23 06:26:00,
2013-07-23 00:31:00,63.7,28.8,30.06,North,0,0.0,0.0,27,0.00,,,0.00,WUHU216HW,2013-07-23 06:31:00,
2013-07-23 00:36:00,63.5,28.6,30.06,North,0,0.0,0.0,27,0.00,,,0.00,WUHU216HW,2013-07-23 06:36:00,
2013-07-23 00:41:00,63.4,29.4,30.06,North,0,0.0,0.0,28,0.00,,,0.00,WUHU216HW,2013-07-23 06:41:00,
2013-07-23 00:46:00,63.4,29.4,30.07,North,0,0.0,0.0,28,0.00,,,0.00,WUHU216HW,2013-07-23 06:46:00,
2013-07-23 00:51:00,63.2,29.4,30.07,North,0,0.0,0.0,28,0.00,,,0.00,WUHU216HW,2013-07-23 06:51:00,
2013-07-23 00:56:00,63.0,28.2,30.07,North,0,0.0,0.0,27,0.00,,,0.00,WUHU216HW,2013-07-23 06:56:00,
2013-07-23 01:01:00,62.8,29.0,30.07,North,0,0.0,0.0,28,0.00,,,0.00,WUHU216HW,2013-07-23 07:01:00,
2013-07-23 01:06:00,62.5,28.7,30.07,North,0,0.0,0.0,28,0.00,,,0.00,WUHU216HW,2013-07-23 07:06:00,
2013-07-23 01:11:00,62.3,29.5,30.07,North,0,0.0,0.0,29,0.00,,,0.00,WUHU216HW,2013-07-23 07:11:00,
2013-07-23 01:16:00,62.1,29.4,30.07,North,0,0.0,0.0,29,0.00,,,0.00,WUHU216HW,2013-07-23 07:16:00,
2013-07-23 01:21:00,61.9,29.2,30.07,North,0,0.0,0.0,29,0.00,,,0.00,WUHU216HW,2013-07-23 07:21:00,
2013-07-23 01:26:00,61.9,29.2,30.07,North,0,0.0,0.0,29,0.00,,,0.00,WUHU216HW,2013-07-23 07:26:00,
2013-07-23 01:31:00,61.6,28.9,30.07,North,0,0.0,0.0,29,0.00,,,0.00,WUHU216HW,2013-07-23 07:31:00,
2013-07-23 01:36:00,61.0,28.4,30.08,North,0,0.0,0.0,29,0.00,,,0.00,WUHU216HW,2013-07-23 07:36:00,
2013-07-23 01:41:00,60.5,27.9,30.08,North,0,0.0,0.0,29,0.00,,,0.00,WUHU216HW,2013-07-23 07:41:00,
2013-07-23 01:46:00,60.1,28.6,30.08,North,0,0.0,0.0,30,0.00,,,0.00,WUHU216HW,2013-07-23 07:46:00,
2013-07-23 01:51:00,59.8,28.3,30.08,North,0,0.0,0.0,30,0.00,,,0.00,WUHU216HW,2013-07-23 07:51:00,
2013-07-23 01:56:00,59.4,28.7,30.08,North,0,0.0,0.0,31,0.00,,,0.00,WUHU216HW,2013-07-23 07:56:00,
2013-07-23 02:01:00,59.0,28.5,30.08,North,0,0.0,0.0,31,0.00,,,0.00,WUHU216HW,2013-07-23 08:01:00,
2013-07-23 02:06:00,58.7,28.8,30.08,North,0,0.0,0.0,32,0.00,,,0.00,WUHU216HW,2013-07-23 08:06:00,
2013-07-23 02:11:00,58.7,31.6,30.08,North,0,0.0,0.0,36,0.00,,,0.00,WUHU216HW,2013-07-23 08:11:00,
2013-07-23 02:16:00,58.7,30.3,30.09,North,0,0.0,0.0,34,0.00,,,0.00,WUHU216HW,2013-07-23 08:16:00,
2013-07-23 02:21:00,58.9,29.7,30.09,North,0,0.0,0.0,33,0.00,,,0.00,WUHU216HW,2013-07-23 08:21:00,
2013-07-23 02:26:00,58.9,30.3,30.08,North,0,0.0,0.0,34,0.00,,,0.00,WUHU216HW,2013-07-23 08:26:00,
2013-07-23 02:31:00,58.9,30.3,30.08,North,0,0.0,0.0,34,0.00,,,0.00,WUHU216HW,2013-07-23 08:31:00,
2013-07-23 02:36:00,58.9,30.3,30.09,North,0,0.0,0.0,34,0.00,,,0.00,WUHU216HW,2013-07-23 08:36:00,
2013-07-23 02:41:00,58.9,31.1,30.09,North,0,0.0,0.0,35,0.00,,,0.00,WUHU216HW,2013-07-23 08:41:00,
2013-07-23 02:46:00,58.9,30.3,30.09,North,0,0.0,0.0,34,0.00,,,0.00,WUHU216HW,2013-07-23 08:46:00,
2013-07-23 02:51:00,58.7,30.3,30.09,North,0,0.0,0.0,34,0.00,,,0.00,WUHU216HW,2013-07-23 08:51:00,
2013-07-23 02:56:00,58.7,30.3,30.09,North,0,0.0,0.0,34,0.00,,,0.00,WUHU216HW,2013-07-23 08:56:00,
2013-07-23 03:01:00,58.5,30.1,30.09,North,0,0.0,0.0,34,0.00,,,0.00,WUHU216HW,2013-07-23 09:01:00,
2013-07-23 03:06:00,57.4,30.5,30.09,North,0,0.0,0.0,36,0.00,,,0.00,WUHU216HW,2013-07-23 09:06:00,
2013-07-23 03:11:00,56.5,30.3,30.09,North,0,0.0,0.0,37,0.00,,,0.00,WUHU216HW,2013-07-23 09:11:00,
2013-07-23 03:16:00,56.2,30.1,30.09,North,0,0.0,0.0,37,0.00,,,0.00,WUHU216HW,2013-07-23 09:16:00,
2013-07-23 03:21:00,56.0,29.2,30.10,North,0,0.0,0.0,36,0.00,,,0.00,WUHU216HW,2013-07-23 09:21:00,
2013-07-23 03:26:00,55.8,29.0,30.10,North,0,0.0,0.0,36,0.00,,,0.00,WUHU216HW,2013-07-23 09:26:00,
2013-07-23 03:31:00,55.4,29.4,30.10,North,0,0.0,0.0,37,0.00,,,0.00,WUHU216HW,2013-07-23 09:31:00,
2013-07-23 03:36:00,55.1,29.1,30.10,North,0,0.0,0.0,37,0.00,,,0.00,WUHU216HW,2013-07-23 09:36:00,
2013-07-23 03:41:00,55.1,29.1,30.10,North,0,0.0,0.0,37,0.00,,,0.00,WUHU216HW,2013-07-23 09:41:00,
2013-07-23 03:46:00,54.7,28.8,30.10,North,0,0.0,0.0,37,0.00,,,0.00,WUHU216HW,2013-07-23 09:46:00,
2013-07-23 03:51:00,54.4,28.4,30.10,North,0,0.0,0.0,37,0.00,,,0.00,WUHU216HW,2013-07-23 09:51:00,
2013-07-23 03:56:00,54.2,29.0,30.10,North,0,0.0,0.0,38,0.00,,,0.00,WUHU216HW,2013-07-23 09:56:00,
2013-07-23 04:01:00,54.4,29.9,30.10,North,0,0.0,0.0,39,0.00,,,0.00,WUHU216HW,2013-07-23 10:01:00,
2013-07-23 04:06:00,54.4,29.9,30.10,North,0,0.0,0.0,39,0.00,,,0.00,WUHU216HW,2013-07-23 10:06:00,
2013-07-23 04:11:00,54.4,30.5,30.10,North,0,0.0,0.0,40,0.00,,,0.00,WUHU216HW,2013-07-23 10:11:00,
2013-07-23 04:16:00,54.2,29.7,30.10,North,0,0.0,0.0,39,0.00,,,0.00,WUHU216HW,2013-07-23 10:16:00,
2013-07-23 04:21:00,54.2,29.7,30.10,North,0,0.0,0.0,39,0.00,,,0.00,WUHU216HW,2013-07-23 10:21:00,
2013-07-23 04:26:00,54.0,31.9,30.11,North,0,0.0,0.0,43,0.00,,,0.00,WUHU216HW,2013-07-23 10:26:00,
2013-07-23 04:31:00,54.2,31.0,30.11,North,0,0.0,0.0,41,0.00,,,0.00,WUHU216HW,2013-07-23 10:31:00,
2013-07-23 04:36:00,54.0,30.3,30.11,North,0,0.0,0.0,40,0.00,,,0.00,WUHU216HW,2013-07-23 10:36:00,
2013-07-23 04:41:00,53.6,29.9,30.11,North,0,0.0,0.0,40,0.00,,,0.00,WUHU216HW,2013-07-23 10:41:00,
2013-07-23 04:46:00,53.5,29.7,30.11,North,0,0.0,0.0,40,0.00,,,0.00,WUHU216HW,2013-07-23 10:46:00,
2013-07-23 04:51:00,52.9,29.8,30.11,North,0,0.0,0.0,41,0.00,,,0.00,WUHU216HW,2013-07-23 10:51:00,
2013-07-23 04:56:00,52.6,29.4,30.11,North,0,0.0,0.0,41,0.00,,,0.00,WUHU216HW,2013-07-23 10:56:00,
2013-07-23 05:01:00,52.2,29.7,30.12,North,0,0.0,0.0,42,0.00,,,0.00,WUHU216HW,2013-07-23 11:01:00,
2013-07-23 05:06:00,52.2,29.7,30.12,North,0,0.0,0.0,42,0.00,,,0.00,WUHU216HW,2013-07-23 11:06:00,
2013-07-23 05:11:00,51.8,30.0,30.12,North,0,0.0,0.0,43,0.00,,,0.00,WUHU216HW,2013-07-23 11:11:00,
2013-07-23 05:16:00,51.8,29.3,30.12,North,0,0.0,0.0,42,0.00,,,0.00,WUHU216HW,2013-07-23 11:16:00,
2013-07-23 05:21:00,51.8,29.3,30.12,North,0,0.0,0.0,42,0.00,,,0.00,WUHU216HW,2013-07-23 11:21:00,
2013-07-23 05:26:00,51.7,29.3,30.13,North,0,0.0,0.0,42,0.00,,,0.00,WUHU216HW,2013-07-23 11:26:00,
2013-07-23 05:31:00,51.5,29.6,30.13,North,0,0.0,0.0,43,0.00,,,0.00,WUHU216HW,2013-07-23 11:31:00,
2013-07-23 05:36:00,51.3,28.9,30.13,North,0,0.0,0.0,42,0.00,,,0.00,WUHU216HW,2013-07-23 11:36:00,
2013-07-23 05:41:00,50.9,29.2,30.13,North,0,0.0,0.0,43,0.00,,,0.00,WUHU216HW,2013-07-23 11:41:00,
2013-07-23 05:46:00,50.8,29.0,30.13,North,0,0.0,0.0,43,0.00,,,0.00,WUHU216HW,2013-07-23 11:46:00,
2013-07-23 05:51:00,50.6,29.3,30.14,North,0,0.0,0.0,44,0.00,,,0.00,WUHU216HW,2013-07-23 11:51:00,
2013-07-23 05:56:00,50.8,30.1,30.14,North,0,0.0,0.0,45,0.00,,,0.00,WUHU216HW,2013-07-23 11:56:00,
2013-07-23 06:01:00,50.9,30.2,30.14,North,0,0.0,0.0,45,0.00,,,0.00,WUHU216HW,2013-07-23 12:01:00,
2013-07-23 06:06:00,50.9,29.7,30.15,North,0,0.0,0.0,44,0.00,,,0.00,WUHU216HW,2013-07-23 12:06:00,
2013-07-23 06:11:00,50.8,29.5,30.15,North,0,0.0,0.0,44,0.00,,,0.00,WUHU216HW,2013-07-23 12:11:00,
2013-07-23 06:16:00,50.6,29.3,30.15,North,0,0.0,0.0,44,0.00,,,0.00,WUHU216HW,2013-07-23 12:16:00,
2013-07-23 06:21:00,50.6,29.9,30.15,North,0,0.0,0.0,45,0.00,,,0.00,WUHU216HW,2013-07-23 12:21:00,
2013-07-23 06:26:00,50.6,29.9,30.15,North,0,0.0,0.0,45,0.00,,,0.00,WUHU216HW,2013-07-23 12:26:00,
2013-07-23 06:31:00,50.9,31.3,30.15,North,0,0.0,0.0,47,0.00,,,0.00,WUHU216HW,2013-07-23 12:31:00,
2013-07-23 06:36:00,51.1,31.0,30.15,North,0,0.0,0.0,46,0.00,,,0.00,WUHU216HW,2013-07-23 12:36:00,
2013-07-23 06:41:00,51.3,31.2,30.15,North,0,0.0,0.0,46,0.00,,,0.00,WUHU216HW,2013-07-23 12:41:00,
2013-07-23 06:46:00,51.5,31.3,30.15,North,0,0.0,0.0,46,0.00,,,0.00,WUHU216HW,2013-07-23 12:46:00,
2013-07-23 06:51:00,51.8,32.1,30.16,North,0,0.0,0.0,47,0.00,,,0.00,WUHU216HW,2013-07-23 12:51:00,
2013-07-23 06:56:00,52.2,32.0,30.16,North,0,0.0,0.0,46,0.00,,,0.00,WUHU216HW,2013-07-23 12:56:00,
2013-07-23 07:01:00,52.7,32.4,30.16,North,0,0.0,0.0,46,0.00,,,0.00,WUHU216HW,2013-07-23 13:01:00,
2013-07-23 07:06:00,53.3,33.0,30.16,North,0,0.0,0.0,46,0.00,,,0.00,WUHU216HW,2013-07-23 13:06:00,
2013-07-23 07:11:00,53.8,33.4,30.16,North,0,0.0,0.0,46,0.00,,,0.00,WUHU216HW,2013-07-23 13:11:00,
2013-07-23 07:16:00,54.4,35.6,30.16,North,0,0.0,0.0,49,0.00,,,0.00,WUHU216HW,2013-07-23 13:16:00,
2013-07-23 07:21:00,54.9,35.5,30.16,North,0,0.0,0.0,48,0.00,,,0.00,WUHU216HW,2013-07-23 13:21:00,
2013-07-23 07:26:00,55.4,34.8,30.16,North,0,0.0,0.0,46,0.00,,,0.00,WUHU216HW,2013-07-23 13:26:00,
2013-07-23 07:31:00,55.8,35.7,30.16,North,0,0.0,0.0,47,0.00,,,0.00,WUHU216HW,2013-07-23 13:31:00,
2013-07-23 07:36:00,56.2,37.3,30.17,North,0,0.0,0.0,49,0.00,,,0.00,WUHU216HW,2013-07-23 13:36:00,
2013-07-23 07:41:00,56.3,38.4,30.17,North,0,0.0,0.0,51,0.00,,,0.00,WUHU216HW,2013-07-23 13:41:00,
2013-07-23 07:46:00,56.5,37.6,30.17,North,0,0.0,0.0,49,0.00,,,0.00,WUHU216HW,2013-07-23 13:46:00,
2013-07-23 07:51:00,56.7,37.8,30.17,North,0,0.0,0.0,49,0.00,,,0.00,WUHU216HW,2013-07-23 13:51:00,
2013-07-23 07:56:00,57.2,38.4,30.17,North,0,0.0,0.0,49,0.00,,,0.00,WUHU216HW,2013-07-23 13:56:00,
2013-07-23 08:01:00,57.8,37.6,30.17,North,0,0.0,0.0,47,0.00,,,0.00,WUHU216HW,2013-07-23 14:01:00,
2013-07-23 08:06:00,58.7,37.9,30.17,North,0,0.0,0.0,46,0.00,,,0.00,WUHU216HW,2013-07-23 14:06:00,
2013-07-23 08:11:00,59.4,38.0,30.17,North,0,0.0,0.0,45,0.00,,,0.00,WUHU216HW,2013-07-23 14:11:00,
2013-07-23 08:16:00,60.3,38.8,30.17,North,0,0.0,0.0,45,0.00,,,0.00,WUHU216HW,2013-07-23 14:16:00,
2013-07-23 08:21:00,61.0,38.8,30.17,North,0,0.0,0.0,44,0.00,,,0.00,WUHU216HW,2013-07-23 14:21:00,
2013-07-23 08:26:00,61.6,39.3,30.17,North,0,0.0,0.0,44,0.00,,,0.00,WUHU216HW,2013-07-23 14:26:00,
2013-07-23 08:31:00,62.3,39.4,30.17,North,0,0.0,0.0,43,0.00,,,0.00,WUHU216HW,2013-07-23 14:31:00,
2013-07-23 08:36:00,63.2,39.1,30.17,North,0,0.0,0.0,41,0.00,,,0.00,WUHU216HW,2013-07-23 14:36:00,
2013-07-23 08:41:00,63.7,39.0,30.17,North,0,0.0,0.0,40,0.00,,,0.00,WUHU216HW,2013-07-23 14:41:00,
2013-07-23 08:46:00,64.4,38.9,30.17,North,0,0.0,0.0,39,0.00,,,0.00,WUHU216HW,2013-07-23 14:46:00,
2013-07-23 08:51:00,65.2,39.5,30.17,North,0,0.0,0.0,39,0.00,,,0.00,WUHU216HW,2013-07-23 14:51:00,
2013-07-23 08:56:00,65.9,38.7,30.17,North,0,0.0,0.0,37,0.00,,,0.00,WUHU216HW,2013-07-23 14:56:00,
2013-07-23 09:01:00,66.6,38.6,30.17,North,0,0.0,0.0,36,0.00,,,0.00,WUHU216HW,2013-07-23 15:01:00,
2013-07-23 09:06:00,67.3,40.0,30.17,North,0,0.0,0.0,37,0.00,,,0.00,WUHU216HW,2013-07-23 15:06:00,
2013-07-23 09:11:00,68.0,40.6,30.17,North,0,0.0,0.0,37,0.00,,,0.00,WUHU216HW,2013-07-23 15:11:00,
2013-07-23 09:16:00,68.8,39.8,30.18,North,0,0.0,0.0,35,0.00,,,0.00,WUHU216HW,2013-07-23 15:16:00,
2013-07-23 09:21:00,69.5,40.4,30.18,North,0,0.0,0.0,35,0.00,,,0.00,WUHU216HW,2013-07-23 15:21:00,
2013-07-23 09:26:00,70.0,40.2,30.18,North,0,0.0,0.0,34,0.00,,,0.00,WUHU216HW,2013-07-23 15:26:00,
2013-07-23 09:31:00,70.4,39.8,30.18,North,0,0.0,0.0,33,0.00,,,0.00,WUHU216HW,2013-07-23 15:31:00,
2013-07-23 09:36:00,70.9,40.2,30.18,North,0,0.0,0.0,33,0.00,,,0.00,WUHU216HW,2013-07-23 15:36:00,
2013-07-23 09:41:00,71.6,40.1,30.18,North,0,0.0,0.0,32,0.00,,,0.00,WUHU216HW,2013-07-23 15:41:00,
2013-07-23 09:46:00,72.5,41.0,30.17,North,0,0.0,0.0,32,0.00,,,0.00,WUHU216HW,2013-07-23 15:46:00,
2013-07-23 09:51:00,73.1,39.9,30.17,North,0,0.0,0.0,30,0.00,,,0.00,WUHU216HW,2013-07-23 15:51:00,
2013-07-23 09:56:00,73.8,40.5,30.18,North,0,0.0,0.0,30,0.00,,,0.00,WUHU216HW,2013-07-23 15:56:00,
2013-07-23 10:01:00,74.2,40.8,30.17,North,0,0.0,0.0,30,0.00,,,0.00,WUHU216HW,2013-07-23 16:01:00,
2013-07-23 10:06:00,74.7,40.2,30.17,North,0,0.0,0.0,29,0.00,,,0.00,WUHU216HW,2013-07-23 16:06:00,
2013-07-23 10:11:00,75.2,40.8,30.18,North,0,0.0,0.0,29,0.00,,,0.00,WUHU216HW,2013-07-23 16:11:00,
2013-07-23 10:16:00,75.8,40.1,30.17,North,0,0.0,0.0,28,0.00,,,0.00,WUHU216HW,2013-07-23 16:16:00,
2013-07-23 10:21:00,76.0,40.3,30.17,North,0,0.0,0.0,28,0.00,,,0.00,WUHU216HW,2013-07-23 16:21:00,
2013-07-23 10:26:00,76.5,40.9,30.17,North,0,0.0,0.0,28,0.00,,,0.00,WUHU216HW,2013-07-23 16:26:00,
2013-07-23 10:31:00,76.7,41.0,30.17,North,0,0.0,0.0,28,0.00,,,0.00,WUHU216HW,2013-07-23 16:31:00,
2013-07-23 10:36:00,77.4,39.5,30.17,North,0,0.0,0.0,26,0.00,,,0.00,WUHU216HW,2013-07-23 16:36:00,
2013-07-23 10:41:00,77.8,38.7,30.17,North,0,0.0,0.0,25,0.00,,,0.00,WUHU216HW,2013-07-23 16:41:00,
2013-07-23 10:46:00,78.1,39.1,30.17,North,0,0.0,0.0,25,0.00,,,0.00,WUHU216HW,2013-07-23 16:46:00,
2013-07-23 10:51:00,78.8,39.6,30.17,North,0,0.0,0.0,25,0.00,,,0.00,WUHU216HW,2013-07-23 16:51:00,
2013-07-23 10:56:00,79.6,40.2,30.17,North,0,0.0,0.0,25,0.00,,,0.00,WUHU216HW,2013-07-23 16:56:00,
2013-07-23 11:01:00,80.3,39.9,30.17,North,0,0.0,0.0,24,0.00,,,0.00,WUHU216HW,2013-07-23 17:01:00,
2013-07-23 11:06:00,81.0,40.5,30.17,North,0,0.0,0.0,24,0.00,,,0.00,WUHU216HW,2013-07-23 17:06:00,
2013-07-23 11:11:00,81.5,39.9,30.17,North,0,0.0,0.0,23,0.00,,,0.00,WUHU216HW,2013-07-23 17:11:00,
2013-07-23 11:16:00,81.7,39.0,30.17,North,0,0.0,0.0,22,0.00,,,0.00,WUHU216HW,2013-07-23 17:16:00,
2013-07-23 11:21:00,81.7,37.9,30.17,North,0,0.0,0.0,21,0.00,,,0.00,WUHU216HW,2013-07-23 17:21:00,
2013-07-23 11:26:00,81.7,35.2,30.17,North,0,0.0,0.0,19,0.00,,,0.00,WUHU216HW,2013-07-23 17:26:00,
2013-07-23 11:31:00,82.1,35.5,30.17,North,0,0.0,0.0,19,0.00,,,0.00,WUHU216HW,2013-07-23 17:31:00,
2013-07-23 11:36:00,82.3,35.7,30.16,North,0,0.0,0.0,19,0.00,,,0.00,WUHU216HW,2013-07-23 17:36:00,
2013-07-23 11:41:00,82.4,34.0,30.16,North,0,0.0,0.0,18,0.00,,,0.00,WUHU216HW,2013-07-23 17:41:00,
2013-07-23 11:46:00,82.4,34.0,30.16,North,0,0.0,0.0,18,0.00,,,0.00,WUHU216HW,2013-07-23 17:46:00,
2013-07-23 11:51:00,82.4,34.0,30.16,North,0,0.0,0.0,18,0.00,,,0.00,WUHU216HW,2013-07-23 17:51:00,
2013-07-23 11:57:00,82.6,34.2,30.16,North,0,0.0,0.0,18,0.00,,,0.00,WUHU216HW,2013-07-23 17:57:00,
2013-07-23 12:02:00,82.8,36.0,30.16,North,0,0.0,0.0,19,0.00,,,0.00,WUHU216HW,2013-07-23 18:02:00,
2013-07-23 12:07:00,83.7,35.0,30.16,North,0,0.0,0.0,18,0.00,,,0.00,WUHU216HW,2013-07-23 18:07:00,
2013-07-23 12:12:00,84.4,35.7,30.16,North,0,0.0,0.0,18,0.00,,,0.00,WUHU216HW,2013-07-23 18:12:00,
2013-07-23 12:18:00,85.0,36.0,30.15,North,0,0.0,0.0,18,0.00,,,0.00,WUHU216HW,2013-07-23 18:18:00,
2013-07-23 12:23:00,85.1,34.5,30.15,North,0,0.0,0.0,17,0.00,,,0.00,WUHU216HW,2013-07-23 18:23:00,
2013-07-23 12:28:00,85.3,33.0,30.15,North,0,0.0,0.0,16,0.00,,,0.00,WUHU216HW,2013-07-23 18:28:00,
2013-07-23 12:33:00,85.5,33.0,30.15,North,0,0.0,0.0,16,0.00,,,0.00,WUHU216HW,2013-07-23 18:33:00,
2013-07-23 12:39:00,85.3,31.2,30.15,North,0,0.0,0.0,15,0.00,,,0.00,WUHU216HW,2013-07-23 18:39:00,
2013-07-23 12:44:00,86.0,33.5,30.15,North,0,0.0,0.0,16,0.00,,,0.00,WUHU216HW,2013-07-23 18:44:00,
2013-07-23 12:49:00,86.8,34.1,30.15,North,0,0.0,0.0,16,0.00,,,0.00,WUHU216HW,2013-07-23 18:49:00,
2013-07-23 12:54:00,86.9,29.1,30.15,North,0,0.0,0.0,13,0.00,,,0.00,WUHU216HW,2013-07-23 18:54:00,
2013-07-23 12:59:00,86.4,28.6,30.15,North,0,0.0,0.0,13,0.00,,,0.00,WUHU216HW,2013-07-23 18:59:00,
2013-07-23 13:04:00,86.4,30.3,30.15,North,0,0.0,0.0,14,0.00,,,0.00,WUHU216HW,2013-07-23 19:04:00,
2013-07-23 13:09:00,86.6,28.8,30.15,North,0,0.0,0.0,13,0.00,,,0.00,WUHU216HW,2013-07-23 19:09:00,
2013-07-23 13:14:00,86.9,32.6,30.14,North,0,0.0,0.0,15,0.00,,,0.00,WUHU216HW,2013-07-23 19:14:00,
2013-07-23 13:19:00,87.1,29.3,30.14,North,0,0.0,0.0,13,0.00,,,0.00,WUHU216HW,2013-07-23 19:19:00,
2013-07-23 13:24:00,86.8,29.0,30.14,North,0,0.0,0.0,13,0.00,,,0.00,WUHU216HW,2013-07-23 19:24:00,
2013-07-23 13:30:00,87.3,29.4,30.14,North,0,0.0,0.0,13,0.00,,,0.00,WUHU216HW,2013-07-23 19:30:00,
2013-07-23 13:35:00,87.5,29.5,30.13,North,0,0.0,0.0,13,0.00,,,0.00,WUHU216HW,2013-07-23 19:35:00,
2013-07-23 13:40:00,88.4,30.3,30.13,North,0,0.0,0.0,13,0.00,,,0.00,WUHU216HW,2013-07-23 19:40:00,
2013-07-23 13:45:00,89.5,29.3,30.13,North,0,0.0,0.0,12,0.00,,,0.00,WUHU216HW,2013-07-23 19:45:00,
2013-07-23 13:50:00,89.6,29.4,30.13,North,0,0.0,0.0,12,0.00,,,0.00,WUHU216HW,2013-07-23 19:50:00,
2013-07-23 13:55:00,90.0,29.7,30.13,North,0,0.0,0.0,12,0.00,,,0.00,WUHU216HW,2013-07-23 19:55:00,
2013-07-23 14:00:00,90.5,31.9,30.12,North,0,0.0,0.0,13,0.00,,,0.00,WUHU216HW,2013-07-23 20:00:00,
2013-07-23 14:05:00,90.7,30.2,30.12,North,0,0.0,0.0,12,0.00,,,0.00,WUHU216HW,2013-07-23 20:05:00,
2013-07-23 14:10:00,90.7,28.5,30.13,North,0,0.0,0.0,11,0.00,,,0.00,WUHU216HW,2013-07-23 20:10:00,
2013-07-23 14:15:00,90.7,30.2,30.13,North,0,0.0,0.0,12,0.00,,,0.00,WUHU216HW,2013-07-23 20:15:00,
2013-07-23 14:20:00,91.1,30.6,30.12,North,0,0.0,0.0,12,0.00,,,0.00,WUHU216HW,2013-07-23 20:20:00,
2013-07-23 14:26:00,91.3,30.7,30.12,North,0,0.0,0.0,12,0.00,,,0.00,WUHU216HW,2013-07-23 20:26:00,
2013-07-23 14:31:00,91.6,29.3,30.12,North,0,0.0,0.0,11,0.00,,,0.00,WUHU216HW,2013-07-23 20:31:00,
2013-07-23 14:36:00,91.8,29.3,30.12,North,0,0.0,0.0,11,0.00,,,0.00,WUHU216HW,2013-07-23 20:36:00,
2013-07-23 14:41:00,92.0,29.5,30.12,North,0,0.0,0.0,11,0.00,,,0.00,WUHU216HW,2013-07-23 20:41:00,
2013-07-23 14:46:00,92.0,29.5,30.12,North,0,0.0,0.0,11,0.00,,,0.00,WUHU216HW,2013-07-23 20:46:00,
2013-07-23 14:51:00,91.6,27.5,30.12,North,0,0.0,0.0,10,0.00,,,0.00,WUHU216HW,2013-07-23 20:51:00,
2013-07-23 14:56:00,90.5,26.6,30.12,North,0,0.0,0.0,10,0.00,,,0.00,WUHU216HW,2013-07-23 20:56:00,
2013-07-23 15:01:00,90.0,28.0,30.12,North,0,0.0,0.0,11,0.00,,,0.00,WUHU216HW,2013-07-23 21:01:00,
2013-07-23 15:06:00,89.8,27.8,30.12,North,0,0.0,0.0,11,0.00,,,0.00,WUHU216HW,2013-07-23 21:06:00,
2013-07-23 15:11:00,90.5,28.4,30.12,North,0,0.0,0.0,11,0.00,,,0.00,WUHU216HW,2013-07-23 21:11:00,
2013-07-23 15:17:00,91.8,29.3,30.11,North,0,0.0,0.0,11,0.00,,,0.00,WUHU216HW,2013-07-23 21:17:00,
2013-07-23 15:22:00,92.5,29.9,30.11,North,0,0.0,0.0,11,0.00,,,0.00,WUHU216HW,2013-07-23 21:22:00,
2013-07-23 15:27:00,93.1,30.2,30.11,North,0,0.0,0.0,11,0.00,,,0.00,WUHU216HW,2013-07-23 21:27:00,
2013-07-23 15:32:00,93.4,30.5,30.11,North,0,0.0,0.0,11,0.00,,,0.00,WUHU216HW,2013-07-23 21:32:00,
2013-07-23 15:37:00,93.6,30.7,30.11,North,0,0.0,0.0,11,0.00,,,0.00,WUHU216HW,2013-07-23 21:37:00,
2013-07-23 15:42:00,94.0,31.0,30.11,North,0,0.0,0.0,11,0.00,,,0.00,WUHU216HW,2013-07-23 21:42:00,
2013-07-23 15:47:00,94.1,31.2,30.10,North,0,0.0,0.0,11,0.00,,,0.00,WUHU216HW,2013-07-23 21:47:00,
2013-07-23 15:52:00,94.3,31.2,30.11,North,0,0.0,0.0,11,0.00,,,0.00,WUHU216HW,2013-07-23 21:52:00,
2013-07-23 15:57:00,94.3,29.5,30.10,North,0,0.0,0.0,10,0.00,,,0.00,WUHU216HW,2013-07-23 21:57:00,
2013-07-23 16:03:00,94.0,29.2,30.10,North,0,0.0,0.0,10,0.00,,,0.00,WUHU216HW,2013-07-23 22:03:00,
2013-07-23 16:08:00,94.5,29.6,30.10,North,0,0.0,0.0,8,0.00,,,0.00,WUHU216HW,2013-07-23 22:08:00,
2013-07-23 16:13:00,94.0,29.2,30.10,North,0,0.0,0.0,10,0.00,,,0.00,WUHU216HW,2013-07-23 22:13:00,
2013-07-23 16:18:00,93.1,28.5,30.10,North,0,0.0,0.0,8,0.00,,,0.00,WUHU216HW,2013-07-23 22:18:00,
2013-07-23 16:23:00,93.1,28.5,30.10,North,0,0.0,0.0,10,0.00,,,0.00,WUHU216HW,2013-07-23 22:23:00,
2013-07-23 16:28:00,93.4,28.8,30.10,North,0,0.0,0.0,10,0.00,,,0.00,WUHU216HW,2013-07-23 22:28:00,
2013-07-23 16:33:00,94.1,29.3,30.09,North,0,0.0,0.0,10,0.00,,,0.00,WUHU216HW,2013-07-23 22:33:00,
2013-07-23 16:38:00,94.7,29.8,30.09,North,0,0.0,0.0,10,0.00,,,0.00,WUHU216HW,2013-07-23 22:38:00,
2013-07-23 16:43:00,95.4,30.3,30.09,North,0,0.0,0.0,8,0.00,,,0.00,WUHU216HW,2013-07-23 22:43:00,
2013-07-23 16:48:00,95.9,30.7,30.09,North,0,0.0,0.0,8,0.00,,,0.00,WUHU216HW,2013-07-23 22:48:00,
2013-07-23 16:53:00,96.5,31.1,30.09,North,0,0.0,0.0,8,0.00,,,0.00,WUHU216HW,2013-07-23 22:53:00,
2013-07-23 16:59:00,97.2,31.6,30.08,North,0,0.0,0.0,8,0.00,,,0.00,WUHU216HW,2013-07-23 22:59:00,
2013-07-23 17:04:00,99.4,33.3,30.08,North,0,0.0,0.0,6,0.00,,,0.00,WUHU216HW,2013-07-23 23:04:00,
2013-07-23 17:09:00,99.4,33.3,30.08,North,0,0.0,0.0,8,0.00,,,0.00,WUHU216HW,2013-07-23 23:09:00,
2013-07-23 17:14:00,99.0,33.0,30.08,North,0,0.0,0.0,7,0.00,,,0.00,WUHU216HW,2013-07-23 23:14:00,
2013-07-23 17:19:00,98.8,33.0,30.08,North,0,0.0,0.0,7,0.00,,,0.00,WUHU216HW,2013-07-23 23:19:00,
2013-07-23 17:24:00,97.7,32.0,30.08,North,0,0.0,0.0,7,0.00,,,0.00,WUHU216HW,2013-07-23 23:24:00,
2013-07-23 17:29:00,97.9,32.2,30.08,North,0,0.0,0.0,7,0.00,,,0.00,WUHU216HW,2013-07-23 23:29:00,
2013-07-23 17:34:00,97.4,31.8,30.08,North,0,0.0,0.0,7,0.00,,,0.00,WUHU216HW,2013-07-23 23:34:00,
2013-07-23 17:40:00,97.7,32.0,30.08,North,0,0.0,0.0,8,0.00,,,0.00,WUHU216HW,2013-07-23 23:40:00,
2013-07-23 17:45:00,101.5,34.9,30.08,North,0,0.0,0.0,7,0.00,,,0.00,WUHU216HW,2013-07-23 23:45:00,
2013-07-23 17:50:00,100.4,34.2,30.08,North,0,0.0,0.0,6,0.00,,,0.00,WUHU216HW,2013-07-23 23:50:00,
2013-07-23 17:55:00,98.5,32.6,30.08,North,0,0.0,0.0,7,0.00,,,0.00,WUHU216HW,2013-07-23 23:55:00,
2013-07-23 18:00:00,97.9,32.2,30.08,North,0,0.0,0.0,7,0.00,,,0.00,WUHU216HW,2013-07-24 00:00:00,
2013-07-23 18:05:00,97.0,31.5,30.08,North,0,0.0,0.0,7,0.00,,,0.00,WUHU216HW,2013-07-24 00:05:00,
2013-07-23 18:10:00,96.3,31.0,30.08,North,0,0.0,0.0,7,0.00,,,0.00,WUHU216HW,2013-07-24 00:10:00,
2013-07-23 18:15:00,97.4,31.8,30.08,North,0,0.0,0.0,7,0.00,,,0.00,WUHU216HW,2013-07-24 00:15:00,
2013-07-23 18:21:00,97.9,32.2,30.08,North,0,0.0,0.0,7,0.00,,,0.00,WUHU216HW,2013-07-24 00:21:00,
2013-07-23 18:26:00,97.6,31.9,30.08,North,0,0.0,0.0,7,0.00,,,0.00,WUHU216HW,2013-07-24 00:26:00,
2013-07-23 18:31:00,99.0,33.0,30.08,North,0,0.0,0.0,7,0.00,,,0.00,WUHU216HW,2013-07-24 00:31:00,
2013-07-23 18:36:00,97.4,31.8,30.08,North,0,0.0,0.0,7,0.00,,,0.00,WUHU216HW,2013-07-24 00:36:00,
2013-07-23 18:41:00,96.7,31.2,30.08,North,0,0.0,0.0,7,0.00,,,0.00,WUHU216HW,2013-07-24 00:41:00,
2013-07-23 18:46:00,96.8,31.3,30.08,North,0,0.0,0.0,7,0.00,,,0.00,WUHU216HW,2013-07-24 00:46:00,
2013-07-23 18:51:00,97.0,31.5,30.08,North,0,0.0,0.0,7,0.00,,,0.00,WUHU216HW,2013-07-24 00:51:00,
2013-07-23 18:56:00,98.6,32.8,30.07,North,0,0.0,0.0,7,0.00,,,0.00,WUHU216HW,2013-07-24 00:56:00,
2013-07-23 19:01:00,97.2,31.6,30.08,North,0,0.0,0.0,7,0.00,,,0.00,WUHU216HW,2013-07-24 01:01:00,
2013-07-23 19:06:00,97.7,32.0,30.08,North,0,0.0,0.0,7,0.00,,,0.00,WUHU216HW,2013-07-24 01:06:00,
2013-07-23 19:11:00,97.4,31.8,30.08,North,0,0.0,0.0,7,0.00,,,0.00,WUHU216HW,2013-07-24 01:11:00,
2013-07-23 19:16:00,97.6,31.9,30.07,North,0,0.0,0.0,7,0.00,,,0.00,WUHU216HW,2013-07-24 01:16:00,
2013-07-23 19:21:00,96.8,31.3,30.07,North,0,0.0,0.0,7,0.00,,,0.00,WUHU216HW,2013-07-24 01:21:00,
2013-07-23 19:26:00,96.5,31.1,30.08,North,0,0.0,0.0,7,0.00,,,0.00,WUHU216HW,2013-07-24 01:26:00,
2013-07-23 19:31:00,96.1,30.8,30.07,North,0,0.0,0.0,7,0.00,,,0.00,WUHU216HW,2013-07-24 01:31:00,
2013-07-23 19:36:00,95.8,30.6,30.07,North,0,0.0,0.0,7,0.00,,,0.00,WUHU216HW,2013-07-24 01:36:00,
2013-07-23 19:41:00,95.8,30.6,30.08,North,0,0.0,0.0,7,0.00,,,0.00,WUHU216HW,2013-07-24 01:41:00,
2013-07-23 19:47:00,95.6,30.4,30.07,North,0,0.0,0.0,7,0.00,,,0.00,WUHU216HW,2013-07-24 01:47:00,
2013-07-23 19:52:00,95.4,30.3,30.07,North,0,0.0,0.0,7,0.00,,,0.00,WUHU216HW,2013-07-24 01:52:00,
2013-07-23 19:57:00,94.3,29.5,30.07,North,0,0.0,0.0,8,0.00,,,0.00,WUHU216HW,2013-07-24 01:57:00,
2013-07-23 20:02:00,91.8,27.6,30.08,North,0,0.0,0.0,8,0.00,,,0.00,WUHU216HW,2013-07-24 02:02:00,
2013-07-23 20:07:00,90.7,26.8,30.08,North,0,0.0,0.0,10,0.00,,,0.00,WUHU216HW,2013-07-24 02:07:00,
2013-07-23 20:12:00,90.0,26.2,30.08,North,0,0.0,0.0,10,0.00,,,0.00,WUHU216HW,2013-07-24 02:12:00,
2013-07-23 20:17:00,89.5,25.8,30.08,North,0,0.0,0.0,10,0.00,,,0.00,WUHU216HW,2013-07-24 02:17:00,
2013-07-23 20:23:00,88.9,25.4,30.08,North,0,0.0,0.0,10,0.00,,,0.00,WUHU216HW,2013-07-24 02:23:00,
2013-07-23 20:28:00,88.2,24.9,30.08,North,0,0.0,0.0,10,0.00,,,0.00,WUHU216HW,2013-07-24 02:28:00,
2013-07-23 20:33:00,87.8,24.7,30.08,North,0,0.0,0.0,10,0.00,,,0.00,WUHU216HW,2013-07-24 02:33:00,
2013-07-23 20:38:00,87.3,25.9,30.08,North,0,0.0,0.0,11,0.00,,,0.00,WUHU216HW,2013-07-24 02:38:00,
2013-07-23 20:43:00,86.6,25.4,30.09,North,0,0.0,0.0,11,0.00,,,0.00,WUHU216HW,2013-07-24 02:43:00,
2013-07-23 20:48:00,86.0,24.9,30.09,North,0,0.0,0.0,11,0.00,,,0.00,WUHU216HW,2013-07-24 02:48:00,
2013-07-23 20:53:00,84.8,24.0,30.09,North,0,0.0,0.0,11,0.00,,,0.00,WUHU216HW,2013-07-24 02:53:00,
2013-07-23 20:59:00,83.2,24.4,30.09,North,0,0.0,0.0,12,0.00,,,0.00,WUHU216HW,2013-07-24 02:59:00,
2013-07-23 21:04:00,81.7,23.3,30.09,North,0,0.0,0.0,12,0.00,,,0.00,WUHU216HW,2013-07-24 03:04:00,
2013-07-23 21:09:00,80.5,24.0,30.09,North,0,0.0,0.0,13,0.00,,,0.00,WUHU216HW,2013-07-24 03:09:00,
2013-07-23 21:14:00,79.6,23.2,30.10,North,0,0.0,0.0,13,0.00,,,0.00,WUHU216HW,2013-07-24 03:14:00,
2013-07-23 21:19:00,78.7,25.9,30.10,North,0,0.0,0.0,15,0.00,,,0.00,WUHU216HW,2013-07-24 03:19:00,
2013-07-23 21:24:00,78.3,25.6,30.10,North,0,0.0,0.0,15,0.00,,,0.00,WUHU216HW,2013-07-24 03:24:00,
2013-07-23 21:29:00,77.6,25.0,30.10,North,0,0.0,0.0,15,0.00,,,0.00,WUHU216HW,2013-07-24 03:29:00,
2013-07-23 21:34:00,76.7,24.4,30.10,North,0,0.0,0.0,15,0.00,,,0.00,WUHU216HW,2013-07-24 03:34:00,
2013-07-23 21:39:00,76.1,23.9,30.10,North,0,0.0,0.0,15,0.00,,,0.00,WUHU216HW,2013-07-24 03:39:00,
2013-07-23 21:44:00,75.6,25.2,30.10,North,0,0.0,0.0,16,0.00,,,0.00,WUHU216HW,2013-07-24 03:44:00,
2013-07-23 21:49:00,75.1,24.8,30.10,North,0,0.0,0.0,16,0.00,,,0.00,WUHU216HW,2013-07-24 03:49:00,
2013-07-23 21:54:00,74.5,29.3,30.10,North,0,0.0,0.0,19,0.00,,,0.00,WUHU216HW,2013-07-24 03:54:00,
2013-07-23 21:59:00,74.0,31.5,30.11,North,0,0.0,0.0,21,0.00,,,0.00,WUHU216HW,2013-07-24 03:59:00,
2013-07-23 22:01:00,73.8,30.3,30.11,North,0,0.0,0.0,20,0.00,,,0.00,WUHU216HW,2013-07-24 04:01:00,
2013-07-23 22:06:00,73.3,28.3,30.11,North,0,0.0,0.0,19,0.00,,,0.00,WUHU216HW,2013-07-24 04:06:00,
2013-07-23 22:11:00,72.7,27.8,30.11,North,0,0.0,0.0,19,0.00,,,0.00,WUHU216HW,2013-07-24 04:11:00,
2013-07-23 22:16:00,72.2,27.3,30.11,North,0,0.0,0.0,19,0.00,,,0.00,WUHU216HW,2013-07-24 04:16:00,
2013-07-23 22:21:00,71.6,28.4,30.11,North,0,0.0,0.0,20,0.00,,,0.00,WUHU216HW,2013-07-24 04:21:00,
2013-07-23 22:26:00,70.9,26.3,30.12,North,0,0.0,0.0,19,0.00,,,0.00,WUHU216HW,2013-07-24 04:26:00,
2013-07-23 22:31:00,70.4,25.8,30.12,North,0,0.0,0.0,19,0.00,,,0.00,WUHU216HW,2013-07-24 04:31:00,
2013-07-23 22:36:00,69.8,25.4,30.12,North,0,0.0,0.0,19,0.00,,,0.00,WUHU216HW,2013-07-24 04:36:00,
2013-07-23 22:41:00,69.3,27.5,30.12,North,0,0.0,0.0,21,0.00,,,0.00,WUHU216HW,2013-07-24 04:41:00,
2013-07-23 22:46:00,68.8,27.1,30.12,North,0,0.0,0.0,21,0.00,,,0.00,WUHU216HW,2013-07-24 04:46:00,
2013-07-23 22:51:00,68.0,26.6,30.12,North,0,0.0,0.0,21,0.00,,,0.00,WUHU216HW,2013-07-24 04:51:00,
2013-07-23 22:56:00,67.9,27.4,30.12,North,0,0.0,0.0,22,0.00,,,0.00,WUHU216HW,2013-07-24 04:56:00,
2013-07-23 23:01:00,67.7,27.2,30.13,North,0,0.0,0.0,22,0.00,,,0.00,WUHU216HW,2013-07-24 05:01:00,
2013-07-23 23:06:00,67.9,27.4,30.13,North,0,0.0,0.0,22,0.00,,,0.00,WUHU216HW,2013-07-24 05:06:00,
2013-07-23 23:11:00,67.7,28.3,30.12,North,0,0.0,0.0,23,0.00,,,0.00,WUHU216HW,2013-07-24 05:11:00,
2013-07-23 23:16:00,67.9,28.4,30.13,North,0,0.0,0.0,23,0.00,,,0.00,WUHU216HW,2013-07-24 05:16:00,
2013-07-23 23:21:00,67.9,28.4,30.13,North,0,0.0,0.0,23,0.00,,,0.00,WUHU216HW,2013-07-24 05:21:00,
2013-07-23 23:26:00,67.7,28.3,30.13,North,0,0.0,0.0,23,0.00,,,0.00,WUHU216HW,2013-07-24 05:26:00,
2013-07-23 23:31:00,67.5,28.1,30.13,North,0,0.0,0.0,23,0.00,,,0.00,WUHU216HW,2013-07-24 05:31:00,
2013-07-23 23:36:00,67.3,28.9,30.13,North,0,0.0,0.0,24,0.00,,,0.00,WUHU216HW,2013-07-24 05:36:00,
2013-07-23 23:41:00,67.3,29.9,30.13,North,0,0.0,0.0,25,0.00,,,0.00,WUHU216HW,2013-07-24 05:41:00,
2013-07-23 23:46:00,67.0,28.6,30.13,North,0,0.0,0.0,24,0.00,,,0.00,WUHU216HW,2013-07-24 05:46:00,
2013-07-23 23:51:00,66.8,28.5,30.13,North,0,0.0,0.0,24,0.00,,,0.00,WUHU216HW,2013-07-24 05:51:00,
2013-07-23 23:56:00,66.4,30.2,30.13,North,0,0.0,0.0,26,0.00,,,0.00,WUHU216HW,2013-07-24 05:56:00,